createdAt,value
2017-11-08T00:02:26.133Z,59.60
2017-11-08T00:04:55.193Z,59.60
2017-11-08T00:07:22.721Z,59.60
2017-11-08T00:09:50.227Z,59.60
2017-11-08T00:12:18.489Z,59.70
2017-11-08T00:14:46.013Z,59.70
2017-11-08T00:17:13.510Z,59.60
2017-11-08T00:19:41.030Z,59.50
2017-11-08T00:22:11.134Z,59.60
2017-11-08T00:24:38.654Z,59.50
2017-11-08T00:27:06.917Z,59.70
2017-11-08T00:29:34.447Z,59.60
2017-11-08T00:32:03.313Z,59.60
2017-11-08T00:34:31.293Z,59.60
2017-11-08T00:37:00.068Z,59.60
2017-11-08T00:39:30.185Z,59.50
2017-11-08T00:41:58.153Z,59.60
2017-11-08T00:44:26.324Z,59.50
2017-11-08T00:46:55.330Z,59.50
2017-11-08T00:49:25.042Z,59.50
2017-11-08T00:51:54.836Z,60.20
2017-11-08T00:54:22.907Z,59.50
2017-11-08T00:56:50.959Z,59.50
2017-11-08T00:59:19.969Z,59.60
2017-11-08T01:01:47.733Z,59.50
2017-11-08T01:04:15.805Z,59.60
2017-11-08T01:06:44.793Z,59.70
2017-11-08T01:09:12.864Z,59.50
2017-11-08T01:11:40.946Z,59.60
2017-11-08T01:14:09.720Z,60.00
2017-11-08T01:16:37.692Z,59.60
2017-11-08T01:19:06.316Z,59.60
2017-11-08T01:21:35.980Z,59.80
2017-11-08T01:24:05.047Z,59.80
2017-11-08T01:26:33.042Z,59.70
2017-11-08T01:29:01.014Z,59.70
2017-11-08T01:31:28.979Z,59.70
2017-11-08T01:33:56.945Z,59.90
2017-11-08T01:36:24.603Z,60.00
2017-11-08T01:38:52.139Z,59.90
2017-11-08T01:41:24.598Z,59.90
2017-11-08T01:43:54.672Z,60.00
2017-11-08T01:46:22.170Z,59.90
2017-11-08T01:48:50.453Z,60.00
2017-11-08T01:51:18.732Z,60.10
2017-11-08T01:53:46.278Z,60.10
2017-11-08T01:56:14.549Z,60.10
2017-11-08T01:58:42.046Z,60.00
2017-11-08T02:01:09.573Z,60.70
2017-11-08T02:03:37.842Z,60.00
2017-11-08T02:06:08.087Z,60.00
2017-11-08T02:08:35.589Z,60.10
2017-11-08T02:11:03.111Z,60.00
2017-11-08T02:13:30.634Z,60.00
2017-11-08T02:15:58.893Z,60.10
2017-11-08T02:18:26.409Z,60.00
2017-11-08T02:20:53.904Z,60.10
2017-11-08T02:23:21.424Z,60.00
2017-11-08T02:25:48.938Z,60.10
2017-11-08T02:28:17.989Z,60.10
2017-11-08T02:30:45.514Z,60.00
2017-11-08T02:33:14.906Z,60.00
2017-11-08T02:35:44.383Z,60.10
2017-11-08T02:38:14.470Z,60.00
2017-11-08T02:40:41.970Z,60.10
2017-11-08T02:43:10.253Z,60.10
2017-11-08T02:45:41.392Z,60.00
2017-11-08T02:48:10.666Z,60.10
2017-11-08T02:50:38.162Z,60.10
2017-11-08T02:53:05.679Z,60.10
2017-11-08T02:55:33.951Z,60.10
2017-11-08T02:58:01.478Z,60.00
2017-11-08T03:00:31.846Z,60.10
2017-11-08T03:03:03.149Z,61.00
2017-11-08T03:05:30.646Z,60.20
2017-11-08T03:07:59.857Z,60.20
2017-11-08T03:10:28.154Z,60.20
2017-11-08T03:12:55.658Z,60.20
2017-11-08T03:15:25.143Z,60.20
2017-11-08T03:17:52.637Z,60.20
2017-11-08T03:20:20.139Z,60.20
2017-11-08T03:22:49.618Z,60.20
2017-11-08T03:25:17.105Z,60.20
2017-11-08T03:27:44.626Z,60.30
2017-11-08T03:30:12.890Z,60.20
2017-11-08T03:32:41.154Z,60.40
2017-11-08T03:35:10.409Z,60.30
2017-11-08T03:37:37.902Z,60.30
2017-11-08T03:40:05.422Z,60.20
2017-11-08T03:42:33.890Z,60.30
2017-11-08T03:45:01.393Z,60.30
2017-11-08T03:47:28.921Z,60.30
2017-11-08T03:49:57.375Z,60.30
2017-11-08T03:52:24.881Z,60.30
2017-11-08T03:54:52.410Z,60.50
2017-11-08T03:57:20.267Z,60.50
2017-11-08T03:59:47.791Z,60.50
2017-11-08T04:02:16.059Z,60.50
2017-11-08T04:04:44.326Z,60.60
2017-11-08T04:07:12.619Z,60.00
2017-11-08T04:09:41.094Z,60.50
2017-11-08T04:12:09.403Z,60.60
2017-11-08T04:14:37.870Z,60.60
2017-11-08T04:17:05.375Z,60.50
2017-11-08T04:19:32.899Z,60.50
2017-11-08T04:22:00.402Z,60.50
2017-11-08T04:24:28.697Z,61.30
2017-11-08T04:26:57.917Z,60.60
2017-11-08T04:29:25.423Z,60.60
2017-11-08T04:31:52.951Z,60.60
2017-11-08T04:34:20.445Z,60.60
2017-11-08T04:36:47.965Z,60.60
2017-11-08T04:39:15.469Z,60.60
2017-11-08T04:41:43.740Z,60.70
2017-11-08T04:44:12.044Z,60.60
2017-11-08T04:46:39.542Z,60.60
2017-11-08T04:49:07.075Z,60.60
2017-11-08T04:51:34.574Z,60.70
2017-11-08T04:54:02.073Z,60.70
2017-11-08T04:56:30.546Z,60.60
2017-11-08T04:58:58.123Z,60.60
2017-11-08T05:01:25.645Z,60.50
2017-11-08T05:03:53.910Z,60.50
2017-11-08T05:06:21.410Z,60.50
2017-11-08T05:08:48.942Z,60.60
2017-11-08T05:11:17.214Z,60.50
2017-11-08T05:13:45.509Z,60.50
2017-11-08T05:16:13.007Z,60.50
2017-11-08T05:18:40.504Z,60.70
2017-11-08T05:21:08.797Z,60.70
2017-11-08T05:23:36.299Z,60.70
2017-11-08T05:26:03.820Z,60.40
2017-11-08T05:28:31.323Z,60.50
2017-11-08T05:30:58.826Z,60.50
2017-11-08T05:33:26.358Z,60.60
2017-11-08T05:35:54.624Z,60.50
2017-11-08T05:38:22.909Z,60.60
2017-11-08T05:40:51.178Z,60.50
2017-11-08T05:43:19.466Z,61.20
2017-11-08T05:45:47.057Z,60.60
2017-11-08T05:48:14.579Z,60.50
2017-11-08T05:50:42.867Z,60.60
2017-11-08T05:53:10.364Z,60.60
2017-11-08T05:55:37.890Z,60.60
2017-11-08T05:58:05.394Z,60.70
2017-11-08T06:00:32.903Z,60.50
2017-11-08T06:03:00.443Z,60.50
2017-11-08T06:05:28.709Z,60.50
2017-11-08T06:07:56.998Z,60.50
2017-11-08T06:10:25.262Z,60.50
2017-11-08T06:12:53.550Z,60.30
2017-11-08T06:15:21.053Z,60.30
2017-11-08T06:17:48.578Z,60.50
2017-11-08T06:20:16.114Z,60.60
2017-11-08T06:22:44.409Z,60.40
2017-11-08T06:25:11.937Z,60.40
2017-11-08T06:27:40.221Z,60.50
2017-11-08T06:30:08.737Z,60.50
2017-11-08T06:32:37.623Z,60.50
2017-11-08T06:35:06.716Z,60.30
2017-11-08T06:37:34.684Z,60.40
2017-11-08T06:40:03.675Z,60.20
2017-11-08T06:42:31.643Z,60.40
2017-11-08T06:44:59.612Z,60.30
2017-11-08T06:47:27.580Z,60.20
2017-11-08T06:49:55.655Z,60.20
2017-11-08T06:52:23.617Z,60.00
2017-11-08T06:54:51.553Z,60.20
2017-11-08T06:57:22.316Z,60.10
2017-11-08T06:59:50.301Z,59.90
2017-11-08T07:02:18.253Z,60.00
2017-11-08T07:04:46.228Z,60.30
2017-11-08T07:07:14.187Z,60.30
2017-11-08T07:09:42.155Z,60.20
2017-11-08T07:12:10.122Z,60.30
2017-11-08T07:14:38.398Z,60.50
2017-11-08T07:17:10.205Z,60.40
2017-11-08T07:19:38.899Z,60.50
2017-11-08T07:22:06.909Z,60.50
2017-11-08T07:24:34.876Z,60.40
2017-11-08T07:27:02.844Z,60.40
2017-11-08T07:29:30.709Z,60.30
2017-11-08T07:31:58.267Z,60.30
2017-11-08T07:34:25.768Z,60.50
2017-11-08T07:36:54.069Z,60.30
2017-11-08T07:39:22.338Z,60.30
2017-11-08T07:41:50.630Z,60.30
2017-11-08T07:44:19.128Z,60.30
2017-11-08T07:46:46.661Z,60.30
2017-11-08T07:49:14.930Z,60.40
2017-11-08T07:51:43.232Z,60.20
2017-11-08T07:54:11.712Z,60.20
2017-11-08T07:56:40.807Z,60.20
2017-11-08T07:59:08.338Z,60.20
2017-11-08T08:01:36.605Z,60.30
2017-11-08T08:04:04.910Z,60.40
2017-11-08T08:06:32.418Z,60.30
2017-11-08T08:08:59.950Z,60.20
2017-11-08T08:11:27.454Z,60.10
2017-11-08T08:13:58.654Z,60.20
2017-11-08T08:16:26.191Z,60.20
2017-11-08T08:18:54.642Z,60.20
2017-11-08T08:21:23.695Z,60.20
2017-11-08T08:23:51.205Z,60.20
2017-11-08T08:26:21.149Z,60.10
2017-11-08T08:28:48.677Z,60.10
2017-11-08T08:31:16.181Z,60.10
2017-11-08T08:33:45.647Z,60.10
2017-11-08T08:36:13.150Z,60.10
2017-11-08T08:38:40.650Z,60.00
2017-11-08T08:41:09.170Z,60.80
2017-11-08T08:43:36.674Z,60.00
2017-11-08T08:46:04.966Z,60.10
2017-11-08T08:48:33.443Z,60.00
2017-11-08T08:51:00.948Z,60.00
2017-11-08T08:53:28.477Z,59.90
2017-11-08T08:55:55.983Z,60.00
2017-11-08T08:58:24.277Z,60.80
2017-11-08T09:00:52.539Z,60.00
2017-11-08T09:03:20.826Z,59.90
2017-11-08T09:05:48.333Z,59.90
2017-11-08T09:08:17.799Z,60.00
2017-11-08T09:10:45.303Z,59.90
2017-11-08T09:13:12.806Z,60.00
2017-11-08T09:15:40.333Z,59.90
2017-11-08T09:18:08.606Z,59.90
2017-11-08T09:20:36.138Z,59.90
2017-11-08T09:23:06.113Z,60.60
2017-11-08T09:25:33.649Z,59.90
2017-11-08T09:28:01.923Z,59.90
2017-11-08T09:30:31.171Z,59.90
2017-11-08T09:32:58.675Z,59.90
2017-11-08T09:35:26.942Z,59.80
2017-11-08T09:38:01.110Z,59.90
2017-11-08T09:40:30.584Z,59.90
2017-11-08T09:42:58.870Z,59.90
2017-11-08T09:45:26.375Z,59.90
2017-11-08T09:47:53.912Z,59.80
2017-11-08T09:50:21.418Z,59.80
2017-11-08T09:52:49.686Z,59.80
2017-11-08T09:55:17.974Z,59.80
2017-11-08T09:57:46.242Z,59.90
2017-11-08T10:00:14.542Z,59.90
2017-11-08T10:02:42.051Z,59.90
2017-11-08T10:05:09.563Z,59.80
2017-11-08T10:07:37.090Z,59.80
2017-11-08T10:10:05.392Z,59.80
2017-11-08T10:12:32.930Z,59.80
2017-11-08T10:15:02.151Z,59.80
2017-11-08T10:17:29.667Z,59.80
2017-11-08T10:19:57.957Z,59.80
2017-11-08T10:22:27.190Z,59.90
2017-11-08T10:24:55.621Z,59.80
2017-11-08T10:27:25.722Z,59.80
2017-11-08T10:29:53.221Z,59.80
2017-11-08T10:32:20.746Z,59.70
2017-11-08T10:34:49.222Z,59.70
2017-11-08T10:37:16.749Z,59.60
2017-11-08T10:39:44.326Z,59.70
2017-11-08T10:42:13.771Z,59.70
2017-11-08T10:44:41.275Z,60.30
2017-11-08T10:47:09.547Z,59.60
2017-11-08T10:49:41.695Z,59.70
2017-11-08T10:52:09.202Z,59.70
2017-11-08T10:54:36.743Z,59.70
2017-11-08T10:57:05.018Z,59.70
2017-11-08T10:59:32.550Z,59.70
2017-11-08T11:02:00.056Z,59.70
2017-11-08T11:04:27.560Z,59.70
2017-11-08T11:06:55.091Z,59.70
2017-11-08T11:09:22.594Z,59.60
2017-11-08T11:11:50.885Z,59.60
2017-11-08T11:14:18.383Z,59.60
2017-11-08T11:16:45.886Z,59.70
2017-11-08T11:19:14.189Z,59.60
2017-11-08T11:21:41.690Z,59.60
2017-11-08T11:24:14.163Z,59.60
2017-11-08T11:26:42.445Z,59.60
2017-11-08T11:29:10.752Z,59.70
2017-11-08T11:31:39.057Z,59.60
2017-11-08T11:34:06.576Z,59.60
2017-11-08T11:36:34.883Z,59.60
2017-11-08T11:39:02.388Z,59.60
2017-11-08T11:41:29.893Z,59.60
2017-11-08T11:43:57.418Z,59.70
2017-11-08T11:46:24.924Z,59.60
2017-11-08T11:48:54.317Z,59.60
2017-11-08T11:51:25.791Z,59.60
2017-11-08T11:53:53.287Z,59.60
2017-11-08T11:56:21.591Z,59.60
2017-11-08T11:58:49.090Z,59.60
2017-11-08T12:01:16.617Z,60.20
2017-11-08T12:03:44.119Z,59.60
2017-11-08T12:06:13.159Z,59.60
2017-11-08T12:08:40.680Z,59.60
2017-11-08T12:11:08.186Z,59.70
2017-11-08T12:13:35.731Z,59.60
2017-11-08T12:16:03.235Z,59.60
2017-11-08T12:18:30.761Z,59.70
2017-11-08T12:20:58.275Z,59.60
2017-11-08T12:23:26.550Z,59.90
2017-11-08T12:25:54.847Z,59.70
2017-11-08T12:28:31.075Z,59.70
2017-11-08T12:31:03.091Z,59.60
2017-11-08T12:33:36.912Z,59.60
2017-11-08T12:36:04.434Z,59.60
2017-11-08T12:38:31.939Z,59.60
2017-11-08T12:40:59.440Z,59.60
2017-11-08T12:43:29.671Z,59.60
2017-11-08T12:46:03.919Z,59.60
2017-11-08T12:48:31.457Z,59.50
2017-11-08T12:50:58.966Z,59.60
2017-11-08T12:53:26.469Z,59.60
2017-11-08T12:55:53.999Z,60.30
2017-11-08T12:58:22.296Z,59.60
2017-11-08T13:00:49.842Z,59.60
2017-11-08T13:03:18.134Z,59.60
2017-11-08T13:05:49.515Z,59.60
2017-11-08T13:08:17.044Z,59.60
2017-11-08T13:10:50.282Z,59.60
2017-11-08T13:13:17.825Z,59.50
2017-11-08T13:15:45.330Z,59.60
2017-11-08T13:18:13.604Z,59.60
2017-11-08T13:20:43.827Z,59.60
2017-11-08T13:23:12.101Z,59.60
2017-11-08T13:25:42.367Z,59.50
2017-11-08T13:28:09.875Z,59.50
2017-11-08T13:30:38.142Z,59.60
2017-11-08T13:33:06.437Z,59.50
2017-11-08T13:35:33.931Z,59.50
2017-11-08T13:38:01.463Z,59.60
2017-11-08T13:40:31.470Z,59.50
2017-11-08T13:42:59.019Z,59.50
2017-11-08T13:45:28.350Z,59.50
2017-11-08T13:47:55.858Z,59.50
2017-11-08T13:50:23.385Z,59.50
2017-11-08T13:52:50.895Z,59.60
2017-11-08T13:55:18.443Z,59.50
2017-11-08T13:57:46.735Z,59.50
2017-11-08T14:00:14.271Z,59.50
2017-11-08T14:02:42.540Z,59.50
2017-11-08T14:05:10.810Z,59.60
2017-11-08T14:07:39.846Z,59.50
2017-11-08T14:10:07.356Z,60.10
2017-11-08T14:12:34.882Z,59.50
2017-11-08T14:15:02.379Z,59.50
2017-11-08T14:17:30.651Z,59.50
2017-11-08T14:19:58.175Z,59.50
2017-11-08T14:22:25.687Z,59.50
2017-11-08T14:24:53.222Z,59.50
2017-11-08T14:27:22.467Z,59.50
2017-11-08T14:29:51.882Z,60.20
2017-11-08T14:32:19.432Z,59.50
2017-11-08T14:34:46.940Z,59.50
2017-11-08T14:37:14.468Z,59.50
2017-11-08T14:39:41.969Z,59.50
2017-11-08T14:42:16.084Z,59.50
2017-11-08T14:44:44.354Z,59.50
2017-11-08T14:47:12.626Z,59.50
2017-11-08T14:49:40.919Z,59.60
2017-11-08T14:52:08.454Z,59.50
2017-11-08T14:54:42.498Z,59.50
2017-11-08T14:57:10.004Z,59.50
2017-11-08T14:59:37.616Z,59.50
2017-11-08T15:02:05.127Z,59.40
2017-11-08T15:04:32.635Z,59.50
2017-11-08T15:07:00.159Z,59.40
2017-11-08T15:09:29.391Z,59.50
2017-11-08T15:11:57.875Z,59.50
2017-11-08T15:14:27.218Z,59.40
2017-11-08T15:16:54.718Z,59.40
2017-11-08T15:19:22.245Z,59.40
2017-11-08T15:21:50.525Z,59.40
2017-11-08T15:24:18.818Z,59.40
2017-11-08T15:26:46.333Z,59.40
2017-11-08T15:29:13.860Z,59.40
2017-11-08T15:31:41.363Z,59.40
2017-11-08T15:34:08.890Z,59.40
2017-11-08T15:36:36.391Z,58.90
2017-11-08T15:39:05.418Z,59.40
2017-11-08T15:41:32.951Z,59.40
2017-11-08T15:44:00.452Z,59.30
2017-11-08T15:46:31.767Z,59.30
2017-11-08T15:49:03.251Z,59.30
2017-11-08T15:51:30.788Z,59.30
2017-11-08T15:53:59.242Z,59.50
2017-11-08T15:56:26.739Z,59.40
2017-11-08T15:58:54.264Z,59.40
2017-11-08T16:01:23.738Z,59.30
2017-11-08T16:03:52.039Z,59.40
2017-11-08T16:06:19.548Z,59.30
2017-11-08T16:11:43.906Z,59.40
2017-11-08T16:14:13.386Z,59.50
2017-11-08T16:16:41.650Z,59.40
2017-11-08T16:19:09.922Z,59.40
2017-11-08T16:21:38.210Z,59.50
2017-11-08T16:24:06.508Z,59.30
2017-11-08T16:26:34.031Z,59.30
2017-11-08T16:29:02.295Z,59.40
2017-11-08T16:31:29.794Z,59.40
2017-11-08T16:33:57.319Z,59.40
2017-11-08T16:36:24.826Z,59.40
2017-11-08T16:38:52.363Z,59.40
2017-11-08T16:41:19.880Z,59.40
2017-11-08T16:43:49.343Z,59.40
2017-11-08T16:46:16.856Z,59.40
2017-11-08T16:48:45.114Z,59.40
2017-11-08T16:51:14.595Z,59.40
2017-11-08T16:53:42.090Z,59.40
2017-11-08T16:56:11.358Z,59.40
2017-11-08T16:58:38.867Z,59.40
2017-11-08T17:01:06.406Z,59.40
2017-11-08T17:03:34.671Z,59.40
2017-11-08T17:06:02.951Z,59.40
2017-11-08T17:08:31.251Z,59.40
2017-11-08T17:10:58.754Z,59.40
2017-11-08T17:13:26.284Z,59.40
2017-11-08T17:15:53.801Z,59.40
2017-11-08T17:18:22.085Z,59.40
2017-11-08T17:20:50.351Z,59.40
2017-11-08T17:23:18.631Z,59.40
2017-11-08T17:25:46.935Z,59.40
2017-11-08T17:28:14.439Z,59.40
2017-11-08T17:30:41.954Z,59.30
2017-11-08T17:33:09.460Z,59.30
2017-11-08T17:35:36.989Z,59.30
2017-11-08T17:38:05.443Z,59.30
2017-11-08T17:40:32.943Z,59.30
2017-11-08T17:43:00.473Z,59.40
2017-11-08T17:45:27.975Z,59.30
2017-11-08T17:47:56.266Z,59.40
2017-11-08T17:50:24.538Z,59.40
2017-11-08T17:52:52.823Z,59.30
2017-11-08T17:55:20.326Z,59.30
2017-11-08T17:57:47.836Z,59.30
2017-11-08T18:00:15.358Z,59.30
2017-11-08T18:02:43.636Z,59.30
2017-11-08T18:05:11.931Z,59.30
2017-11-08T18:07:41.166Z,59.20
2017-11-08T18:10:09.620Z,59.20
2017-11-08T18:12:39.130Z,59.30
2017-11-08T18:15:06.635Z,59.20
2017-11-08T18:17:34.164Z,59.20
2017-11-08T18:20:01.663Z,59.20
2017-11-08T18:22:29.174Z,59.20
2017-11-08T18:24:56.703Z,59.20
2017-11-08T18:27:24.211Z,59.30
2017-11-08T18:29:51.740Z,59.20
2017-11-08T18:32:19.247Z,59.30
2017-11-08T18:34:47.520Z,58.60
2017-11-08T18:37:15.046Z,59.20
2017-11-08T18:39:42.578Z,59.10
2017-11-08T18:42:10.107Z,59.10
2017-11-08T18:44:38.391Z,59.20
2017-11-08T18:47:06.683Z,59.20
2017-11-08T18:49:34.190Z,59.10
2017-11-08T18:52:01.691Z,59.10
2017-11-08T18:54:29.220Z,59.20
2017-11-08T18:56:57.487Z,59.10
2017-11-08T18:59:25.011Z,59.10
2017-11-08T19:01:52.511Z,59.10
2017-11-08T19:04:20.059Z,59.20
2017-11-08T19:06:48.339Z,59.80
2017-11-08T19:09:15.867Z,59.10
2017-11-08T19:11:43.383Z,59.10
2017-11-08T19:14:10.885Z,59.10
2017-11-08T19:16:38.411Z,59.10
2017-11-08T19:19:05.916Z,59.10
2017-11-08T19:21:33.459Z,58.90
2017-11-08T19:24:01.972Z,59.00
2017-11-08T19:26:30.259Z,59.30
2017-11-08T19:28:58.548Z,59.10
2017-11-08T19:31:26.079Z,59.10
2017-11-08T19:33:54.388Z,59.20
2017-11-08T19:36:21.890Z,59.20
2017-11-08T19:38:49.392Z,59.20
2017-11-08T19:41:17.891Z,59.30
2017-11-08T19:43:45.423Z,59.20
2017-11-08T19:46:13.983Z,59.20
2017-11-08T19:48:41.896Z,59.10
2017-11-08T19:51:09.491Z,59.20
2017-11-08T19:53:37.017Z,59.10
2017-11-08T19:56:04.585Z,59.10
2017-11-08T19:58:32.151Z,59.10
2017-11-08T20:00:59.655Z,59.10
2017-11-08T20:03:27.211Z,59.10
2017-11-08T20:05:55.480Z,59.10
2017-11-08T20:08:23.778Z,59.30
2017-11-08T20:10:51.282Z,59.30
2017-11-08T20:13:18.807Z,59.30
2017-11-08T20:15:46.308Z,59.30
2017-11-08T20:18:13.822Z,59.30
2017-11-08T20:20:41.343Z,59.40
2017-11-08T20:23:09.646Z,59.50
2017-11-08T20:25:37.343Z,59.40
2017-11-08T20:28:05.077Z,59.30
2017-11-08T20:30:32.944Z,59.60
2017-11-08T20:33:00.913Z,59.20
2017-11-08T20:35:28.879Z,59.30
2017-11-08T20:37:57.007Z,59.50
2017-11-08T20:40:26.657Z,59.50
2017-11-08T20:42:54.423Z,59.50
2017-11-08T20:45:22.190Z,59.50
2017-11-08T20:47:49.811Z,59.60
2017-11-08T20:50:19.289Z,59.80
2017-11-08T20:52:46.799Z,59.30
2017-11-08T20:55:14.335Z,59.20
2017-11-08T20:57:41.868Z,59.20
2017-11-08T21:00:10.134Z,59.30
2017-11-08T21:02:37.664Z,59.20
2017-11-08T21:05:06.129Z,59.30
2017-11-08T21:07:33.652Z,59.30
2017-11-08T21:10:03.041Z,59.40
2017-11-08T21:12:31.334Z,59.70
2017-11-08T21:14:59.616Z,59.30
2017-11-08T21:17:27.133Z,59.30
2017-11-08T21:19:55.615Z,59.40
2017-11-08T21:22:23.128Z,59.30
2017-11-08T21:24:50.656Z,59.30
2017-11-08T21:27:18.951Z,60.00
2017-11-08T21:29:47.407Z,59.40
2017-11-08T21:32:15.693Z,59.40
2017-11-08T21:34:44.187Z,59.30
2017-11-08T21:37:11.718Z,59.50
2017-11-08T21:39:39.991Z,59.30
2017-11-08T21:42:08.281Z,59.30
2017-11-08T21:44:35.791Z,59.30
2017-11-08T21:47:03.321Z,59.30
2017-11-08T21:49:30.826Z,59.30
2017-11-08T21:51:58.350Z,59.30
2017-11-08T21:54:26.892Z,59.90
2017-11-08T21:56:54.765Z,59.30
2017-11-08T21:59:22.529Z,59.20
2017-11-08T22:01:50.059Z,59.40
2017-11-08T22:04:18.334Z,59.50
2017-11-08T22:06:46.638Z,59.60
2017-11-08T22:09:14.144Z,59.60
2017-11-08T22:11:42.592Z,59.40
2017-11-08T22:14:10.111Z,59.50
2017-11-08T22:16:39.339Z,59.50
2017-11-08T22:19:06.875Z,59.50
2017-11-08T22:21:35.328Z,59.70
2017-11-08T22:24:02.851Z,59.50
2017-11-08T22:26:30.363Z,59.60
2017-11-08T22:28:58.651Z,59.40
2017-11-08T22:31:26.195Z,59.40
2017-11-08T22:33:55.434Z,59.50
2017-11-08T22:36:22.967Z,59.60
2017-11-08T22:38:50.470Z,59.40
2017-11-08T22:41:18.024Z,59.50
2017-11-08T22:43:45.531Z,59.50
2017-11-08T22:46:13.524Z,59.50
2017-11-08T22:48:41.502Z,59.60
2017-11-08T22:51:09.459Z,59.60
2017-11-08T22:53:37.428Z,59.60
2017-11-08T22:56:04.973Z,59.70
2017-11-08T22:58:32.812Z,59.70
2017-11-08T23:01:00.683Z,59.60
2017-11-08T23:03:28.581Z,59.50
2017-11-08T23:05:56.899Z,59.50
2017-11-08T23:08:24.435Z,59.60
2017-11-08T23:10:51.930Z,59.50
2017-11-08T23:13:21.158Z,59.50
2017-11-08T23:15:48.667Z,59.50
2017-11-08T23:18:18.126Z,59.50
2017-11-08T23:20:45.636Z,59.50
2017-11-08T23:23:13.908Z,59.50
2017-11-08T23:25:47.204Z,59.50
2017-11-08T23:28:16.666Z,59.50
2017-11-08T23:30:44.177Z,59.50
2017-11-08T23:33:12.464Z,60.10
2017-11-08T23:35:39.969Z,59.40
2017-11-08T23:38:07.498Z,59.40
2017-11-08T23:40:35.004Z,59.40
2017-11-08T23:43:03.285Z,59.40
2017-11-08T23:45:31.583Z,59.90
2017-11-08T23:47:59.094Z,59.30
2017-11-08T23:50:26.624Z,59.30
2017-11-08T23:52:54.131Z,59.30
2017-11-08T23:55:22.403Z,59.40
2017-11-08T23:57:49.927Z,59.30
